Time;durP1;ratioP1;P1;durP2;ratioP2;P2;SDS_P1;SDS_P2;PMS_P1;PMS_P2;Temp;Humidity;BMP_temperature;BMP_pressure;BME280_temperature;BME280_humidity;BME280_pressure;Samples;Min_cycle;Max_cycle;Signal;HPM_P1;HPM_P2
2022/05/14 00:00:24;;;;;;;;;;;24.90;46.80;;;;;;1621193;73;737;-65
2022/05/14 00:02:26;;;;;;;;;;;25.00;46.70;;;;;;1621909;72;1582;-65
2022/05/14 00:04:28;;;;;;;;;;;25.00;46.80;;;;;;1618762;72;723;-66
2022/05/14 00:06:30;;;;;;;;;;;24.90;46.80;;;;;;1618725;72;702;-66
2022/05/14 00:08:32;;;;;;;;;;;25.00;46.80;;;;;;1622452;73;621;-66
2022/05/14 00:13:03;;;;;;;;;;;25.00;46.90;;;;;;1615156;71;1114;-67
2022/05/14 00:14:57;;;;;;;;;;;24.90;47.00;;;;;;1617532;72;1904;-63
2022/05/14 00:16:59;;;;;;;;;;;24.90;47.00;;;;;;1623360;73;1568;-65
2022/05/14 00:19:01;;;;;;;;;;;24.90;47.00;;;;;;1614249;72;731;-62
2022/05/14 00:21:03;;;;;;;;;;;24.90;47.10;;;;;;1626216;71;1141;-65
2022/05/14 00:23:05;;;;;;;;;;;24.90;47.10;;;;;;1619662;72;639;-65
2022/05/14 00:25:07;;;;;;;;;;;25.00;47.10;;;;;;1623667;73;720;-63
2022/05/14 00:27:09;;;;;;;;;;;24.90;47.10;;;;;;1622211;73;765;-65
2022/05/14 00:29:13;;;;;;;;;;;24.90;47.20;;;;;;1611573;72;656;-65
2022/05/14 00:31:16;;;;;;;;;;;24.80;47.20;;;;;;1619437;71;1181;-65
2022/05/14 00:33:17;;;;;;;;;;;24.90;47.30;;;;;;1621054;71;751;-65
2022/05/14 00:35:19;;;;;;;;;;;24.90;47.30;;;;;;1623247;71;1943;-65
2022/05/14 00:37:21;;;;;;;;;;;25.00;47.30;;;;;;1609397;73;665;-65
2022/05/14 00:39:23;;;;;;;;;;;25.00;47.30;;;;;;1625953;72;668;-65
2022/05/14 00:41:27;;;;;;;;;;;24.90;47.30;;;;;;1617267;73;1159;-65
2022/05/14 00:43:29;;;;;;;;;;;24.90;47.30;;;;;;1625482;73;668;-64
2022/05/14 00:45:31;;;;;;;;;;;24.90;47.40;;;;;;1619710;72;718;-65
2022/05/14 00:47:35;;;;;;;;;;;24.90;47.30;;;;;;1621733;73;685;-65
2022/05/14 00:49:37;;;;;;;;;;;25.00;47.40;;;;;;1619985;73;683;-65
2022/05/14 00:51:38;;;;;;;;;;;25.00;47.40;;;;;;1587893;74;1143;-65
2022/05/14 00:53:47;;;;;;;;;;;25.00;47.40;;;;;;1616869;73;776;-64
2022/05/14 00:55:49;;;;;;;;;;;25.00;47.30;;;;;;1619361;73;1933;-66
2022/05/14 00:57:51;;;;;;;;;;;25.00;47.30;;;;;;1622894;73;1610;-66
2022/05/14 00:59:53;;;;;;;;;;;24.90;47.30;;;;;;1620266;72;660;-65
2022/05/14 01:01:55;;;;;;;;;;;24.90;47.40;;;;;;1615080;73;1115;-65
2022/05/14 01:03:57;;;;;;;;;;;25.00;47.40;;;;;;1617466;72;788;-65
2022/05/14 01:05:59;;;;;;;;;;;25.00;47.50;;;;;;1624547;72;698;-65
2022/05/14 01:08:01;;;;;;;;;;;25.00;47.40;;;;;;1614092;73;693;-66
2022/05/14 01:10:03;;;;;;;;;;;25.00;47.60;;;;;;1611896;73;703;-65
2022/05/14 01:12:06;;;;;;;;;;;24.90;47.50;;;;;;1618624;72;1551;-66
2022/05/14 01:14:07;;;;;;;;;;;25.00;47.50;;;;;;1626437;72;931;-65
2022/05/14 01:16:09;;;;;;;;;;;25.00;47.60;;;;;;1618295;73;1944;-65
2022/05/14 01:18:11;;;;;;;;;;;25.00;47.50;;;;;;1608406;73;639;-66
2022/05/14 01:20:14;;;;;;;;;;;24.90;47.40;;;;;;1621775;73;662;-65
2022/05/14 01:22:34;;;;;;;;;;;24.90;47.50;;;;;;1620104;73;1105;-65
2022/05/14 01:27:03;;;;;;;;;;;25.00;47.40;;;;;;1636580;71;1730;-65
2022/05/14 01:29:09;;;;;;;;;;;25.00;47.40;;;;;;1623869;72;680;-65
2022/05/14 01:31:11;;;;;;;;;;;24.90;47.40;;;;;;1622311;72;1189;-65
2022/05/14 01:33:13;;;;;;;;;;;25.00;47.40;;;;;;1622552;72;795;-66
2022/05/14 01:35:15;;;;;;;;;;;24.90;47.40;;;;;;1620205;72;1916;-65
2022/05/14 01:37:18;;;;;;;;;;;25.00;47.40;;;;;;1613158;73;698;-65
2022/05/14 01:39:20;;;;;;;;;;;24.90;47.40;;;;;;1624139;73;660;-65
2022/05/14 01:41:22;;;;;;;;;;;24.90;47.50;;;;;;1618095;72;1604;-65
2022/05/14 01:43:24;;;;;;;;;;;25.00;47.60;;;;;;1625763;72;676;-66
2022/05/14 01:45:26;;;;;;;;;;;24.90;47.60;;;;;;1625653;72;777;-65
2022/05/14 01:47:28;;;;;;;;;;;25.00;47.40;;;;;;1618994;73;708;-65
2022/05/14 01:49:30;;;;;;;;;;;24.90;47.50;;;;;;1623909;72;714;-66
2022/05/14 01:51:31;;;;;;;;;;;24.90;47.40;;;;;;1617393;70;226554;-67
2022/05/14 01:53:33;;;;;;;;;;;25.00;47.40;;;;;;1624875;73;673;-70
2022/05/14 01:55:35;;;;;;;;;;;25.00;47.40;;;;;;1610287;73;1929;-68
2022/05/14 01:57:37;;;;;;;;;;;24.90;47.30;;;;;;1623604;73;743;-70
2022/05/14 01:59:39;;;;;;;;;;;24.90;47.30;;;;;;1633684;72;637;-67
2022/05/14 02:01:41;;;;;;;;;;;24.90;47.30;;;;;;1623918;73;1159;-66
2022/05/14 02:03:44;;;;;;;;;;;25.00;47.30;;;;;;1612474;72;579;-67
2022/05/14 02:05:46;;;;;;;;;;;24.90;47.30;;;;;;1617569;73;648;-70
2022/05/14 02:07:47;;;;;;;;;;;25.00;47.30;;;;;;1612321;73;643;-67
2022/05/14 02:09:49;;;;;;;;;;;25.00;47.30;;;;;;1636467;71;1598;-68
2022/05/14 02:11:51;;;;;;;;;;;24.90;47.30;;;;;;1626634;71;1141;-69
2022/05/14 02:13:53;;;;;;;;;;;25.00;47.40;;;;;;1621291;71;611;-69
2022/05/14 02:15:55;;;;;;;;;;;25.00;47.50;;;;;;1613025;73;1940;-69
2022/05/14 02:17:57;;;;;;;;;;;24.90;47.30;;;;;;1632131;72;655;-70
2022/05/14 02:19:59;;;;;;;;;;;25.00;47.40;;;;;;1613855;71;696;-68
2022/05/14 02:22:01;;;;;;;;;;;24.90;47.30;;;;;;1613487;71;1218;-72
2022/05/14 02:24:03;;;;;;;;;;;24.90;47.30;;;;;;1631858;71;667;-68
2022/05/14 02:26:05;;;;;;;;;;;24.90;47.30;;;;;;1615496;73;687;-68
2022/05/14 02:28:07;;;;;;;;;;;24.90;47.30;;;;;;1627722;73;740;-70
2022/05/14 02:30:10;;;;;;;;;;;24.90;47.40;;;;;;1618435;73;751;-70
2022/05/14 02:32:12;;;;;;;;;;;24.90;47.50;;;;;;1626500;71;1178;-72
2022/05/14 02:34:14;;;;;;;;;;;25.00;47.40;;;;;;1606723;73;572;-67
2022/05/14 02:36:16;;;;;;;;;;;25.00;47.60;;;;;;1619677;73;1931;-69
2022/05/14 02:38:18;;;;;;;;;;;25.00;47.50;;;;;;1622771;73;684;-68
2022/05/14 02:40:21;;;;;;;;;;;25.00;47.30;;;;;;1628017;73;703;-66
2022/05/14 02:42:23;;;;;;;;;;;25.00;47.40;;;;;;1618801;73;1151;-67
2022/05/14 02:44:25;;;;;;;;;;;25.00;47.40;;;;;;1617194;73;572;-68
2022/05/14 02:46:27;;;;;;;;;;;25.00;47.40;;;;;;1610714;73;727;-67
2022/05/14 02:48:29;;;;;;;;;;;25.00;47.50;;;;;;1629278;73;681;-71
2022/05/14 02:50:31;;;;;;;;;;;24.90;47.50;;;;;;1620139;71;1228;-68
2022/05/14 02:52:33;;;;;;;;;;;24.90;47.40;;;;;;1627141;73;1110;-68
2022/05/14 02:54:35;;;;;;;;;;;24.90;47.30;;;;;;1620746;73;824;-68
2022/05/14 02:56:37;;;;;;;;;;;24.90;47.50;;;;;;1625610;73;1955;-68
2022/05/14 03:00:58;;;;;;;;;;;24.90;47.60;;;;;;1614226;73;1619;-70
2022/05/14 03:03:00;;;;;;;;;;;24.90;47.50;;;;;;1622369;72;640;-71
2022/05/14 03:05:02;;;;;;;;;;;25.00;47.60;;;;;;1619098;73;1214;-69
2022/05/14 03:07:07;;;;;;;;;;;24.80;47.60;;;;;;1603851;72;725;-68
2022/05/14 03:09:10;;;;;;;;;;;24.90;47.70;;;;;;1623061;73;667;-69
2022/05/14 03:11:11;;;;;;;;;;;24.90;47.60;;;;;;1624902;71;1125;-69
2022/05/14 03:13:13;;;;;;;;;;;24.90;47.50;;;;;;1626730;73;735;-69
2022/05/14 03:15:15;;;;;;;;;;;24.90;47.50;;;;;;1618379;73;652;-68
2022/05/14 03:17:18;;;;;;;;;;;24.90;47.30;;;;;;1629505;73;1929;-71
2022/05/14 03:19:20;;;;;;;;;;;24.90;47.40;;;;;;1630476;71;1414;-68
2022/05/14 03:21:22;;;;;;;;;;;24.80;47.20;;;;;;1642180;71;1192;-68
2022/05/14 03:23:24;;;;;;;;;;;24.80;47.40;;;;;;1630454;72;690;-71
2022/05/14 03:25:25;;;;;;;;;;;24.90;47.50;;;;;;1626081;73;571;-68
2022/05/14 03:27:27;;;;;;;;;;;24.80;47.40;;;;;;1629923;72;721;-68
2022/05/14 03:29:29;;;;;;;;;;;24.90;47.50;;;;;;1624735;71;730;-70
2022/05/14 03:31:31;;;;;;;;;;;24.80;47.30;;;;;;1618418;73;1190;-68
2022/05/14 03:33:33;;;;;;;;;;;24.80;47.40;;;;;;1628614;71;1437;-68
2022/05/14 03:35:35;;;;;;;;;;;24.90;47.60;;;;;;1619050;73;732;-69
2022/05/14 03:37:37;;;;;;;;;;;24.90;47.60;;;;;;1630144;73;1939;-70
2022/05/14 03:39:39;;;;;;;;;;;24.80;47.60;;;;;;1624465;73;649;-67
2022/05/14 03:41:40;;;;;;;;;;;24.90;47.60;;;;;;1615678;71;1113;-66
2022/05/14 03:43:44;;;;;;;;;;;24.90;47.70;;;;;;1630816;73;531;-68
2022/05/14 03:45:45;;;;;;;;;;;24.90;47.60;;;;;;1606558;73;654;-69
2022/05/14 03:47:47;;;;;;;;;;;24.90;47.50;;;;;;1626134;73;1607;-69
2022/05/14 03:49:49;;;;;;;;;;;24.90;47.40;;;;;;1618460;73;703;-72
2022/05/14 03:51:52;;;;;;;;;;;24.90;47.40;;;;;;1619451;73;1089;-69
2022/05/14 03:53:54;;;;;;;;;;;24.90;47.40;;;;;;1616546;72;759;-70
2022/05/14 03:55:56;;;;;;;;;;;24.90;47.50;;;;;;1626634;73;1935;-68
2022/05/14 03:57:58;;;;;;;;;;;24.90;47.40;;;;;;1627574;72;701;-69
2022/05/14 04:00:01;;;;;;;;;;;24.90;47.50;;;;;;1637268;71;688;-69
2022/05/14 04:02:04;;;;;;;;;;;24.90;47.50;;;;;;1631659;71;1462;-70
2022/05/14 04:04:06;;;;;;;;;;;24.90;47.50;;;;;;1615358;73;678;-69
2022/05/14 04:06:08;;;;;;;;;;;24.90;47.50;;;;;;1620932;73;668;-68
2022/05/14 04:08:10;;;;;;;;;;;24.90;47.50;;;;;;1627631;73;646;-70
2022/05/14 04:10:16;;;;;;;;;;;24.90;47.50;;;;;;1618453;73;712;-70
2022/05/14 04:12:15;;;;;;;;;;;24.90;47.50;;;;;;1622333;73;1149;-68
2022/05/14 04:14:17;;;;;;;;;;;24.90;47.50;;;;;;1631407;73;606;-67
2022/05/14 04:16:19;;;;;;;;;;;24.90;47.50;;;;;;1625724;71;1908;-67
2022/05/14 04:18:24;;;;;;;;;;;24.90;47.50;;;;;;1620137;73;710;-68
2022/05/14 04:20:24;;;;;;;;;;;24.80;47.50;;;;;;1622174;73;1612;-68
2022/05/14 04:22:26;;;;;;;;;;;24.90;47.60;;;;;;1623507;73;1229;-70
2022/05/14 04:24:28;;;;;;;;;;;24.80;47.60;;;;;;1628655;73;662;-67
2022/05/14 04:26:30;;;;;;;;;;;25.00;47.60;;;;;;1629618;73;672;-69
2022/05/14 04:28:32;;;;;;;;;;;24.90;47.60;;;;;;1633434;71;1352;-69
2022/05/14 04:30:34;;;;;;;;;;;24.90;47.60;;;;;;1626640;73;717;-68
2022/05/14 04:32:36;;;;;;;;;;;25.00;47.60;;;;;;1629097;73;1146;-68
2022/05/14 04:34:38;;;;;;;;;;;25.00;47.50;;;;;;1617727;73;527;-70
2022/05/14 04:36:39;;;;;;;;;;;25.00;47.60;;;;;;1622879;73;1944;-67
2022/05/14 04:38:41;;;;;;;;;;;25.00;47.60;;;;;;1620774;73;724;-69
2022/05/14 04:40:44;;;;;;;;;;;25.00;47.60;;;;;;1626966;73;608;-67
2022/05/14 04:42:45;;;;;;;;;;;25.00;47.50;;;;;;1616134;73;1480;-68
2022/05/14 04:44:47;;;;;;;;;;;24.90;47.60;;;;;;1617589;73;737;-69
2022/05/14 04:46:49;;;;;;;;;;;24.90;47.60;;;;;;1620642;73;676;-67
2022/05/14 04:48:51;;;;;;;;;;;25.00;47.60;;;;;;1625454;73;636;-67
2022/05/14 04:50:54;;;;;;;;;;;25.00;47.70;;;;;;1625728;71;1141;-70
2022/05/14 04:52:56;;;;;;;;;;;25.00;47.70;;;;;;1625581;73;773;-67
2022/05/14 04:54:58;;;;;;;;;;;25.00;47.70;;;;;;1628534;73;790;-68
2022/05/14 04:57:00;;;;;;;;;;;25.00;47.90;;;;;;1625480;72;1904;-70
2022/05/14 04:59:02;;;;;;;;;;;25.00;47.70;;;;;;1624619;71;732;-68
2022/05/14 05:01:04;;;;;;;;;;;25.00;47.30;;;;;;1625882;71;1127;-68
2022/05/14 05:03:17;;;;;;;;;;;25.00;47.40;;;;;;1621863;71;695;-70
2022/05/14 05:05:19;;;;;;;;;;;25.00;47.30;;;;;;1625426;73;598;-67
2022/05/14 05:07:21;;;;;;;;;;;24.90;47.20;;;;;;1629189;73;716;-70
2022/05/14 05:09:23;;;;;;;;;;;24.90;47.20;;;;;;1618275;71;604;-69
2022/05/14 05:11:25;;;;;;;;;;;24.80;47.20;;;;;;1625364;71;1446;-69
2022/05/14 05:13:28;;;;;;;;;;;24.90;47.20;;;;;;1620939;71;690;-70
2022/05/14 05:15:30;;;;;;;;;;;24.80;47.10;;;;;;1624965;71;683;-70
2022/05/14 05:17:32;;;;;;;;;;;24.80;47.10;;;;;;1625306;71;1939;-68
2022/05/14 05:19:34;;;;;;;;;;;24.80;47.10;;;;;;1621230;71;645;-68
2022/05/14 05:21:36;;;;;;;;;;;24.80;47.10;;;;;;1625399;71;1142;-69
2022/05/14 05:23:37;;;;;;;;;;;24.70;47.10;;;;;;1625447;71;582;-67
2022/05/14 05:25:39;;;;;;;;;;;24.80;47.10;;;;;;1622651;71;1502;-70
2022/05/14 05:27:41;;;;;;;;;;;24.80;47.10;;;;;;1594270;73;787;-69
2022/05/14 05:29:43;;;;;;;;;;;24.70;47.20;;;;;;1575153;73;693;-68
2022/05/14 05:31:45;;;;;;;;;;;24.80;47.20;;;;;;1562852;74;1187;-67
2022/05/14 05:33:47;;;;;;;;;;;24.80;47.10;;;;;;1592137;72;703;-69
2022/05/14 05:35:49;;;;;;;;;;;24.80;47.10;;;;;;1559136;74;607;-69
2022/05/14 05:37:51;;;;;;;;;;;24.70;47.10;;;;;;1612524;73;1914;-69
2022/05/14 05:39:53;;;;;;;;;;;24.70;47.10;;;;;;1603919;73;1500;-68
2022/05/14 05:41:58;;;;;;;;;;;24.70;47.10;;;;;;1606727;72;1141;-68
2022/05/14 05:43:59;;;;;;;;;;;24.70;47.20;;;;;;1606342;73;1644;-69
2022/05/14 05:46:01;;;;;;;;;;;24.70;47.20;;;;;;1610384;73;766;-69
2022/05/14 05:48:03;;;;;;;;;;;24.70;47.40;;;;;;1606374;73;688;-72
2022/05/14 05:50:05;;;;;;;;;;;24.70;47.40;;;;;;1558949;74;1031;-68
2022/05/14 05:52:07;;;;;;;;;;;24.70;47.50;;;;;;1555545;74;1140;-68
2022/05/14 05:56:47;;;;;;;;;;;24.70;47.40;;;;;;1552957;74;1614;-69
2022/05/14 05:58:48;;;;;;;;;;;24.70;47.30;;;;;;1604547;72;605;-69
2022/05/14 06:00:50;;;;;;;;;;;24.60;47.20;;;;;;1607672;72;1122;-71
2022/05/14 06:02:52;;;;;;;;;;;24.80;47.30;;;;;;1612180;73;623;-68
2022/05/14 06:04:54;;;;;;;;;;;24.70;47.30;;;;;;1606932;73;690;-68
2022/05/14 06:06:56;;;;;;;;;;;24.70;47.30;;;;;;1607634;73;977;-70
2022/05/14 06:08:58;;;;;;;;;;;24.70;47.40;;;;;;1607732;73;723;-67
2022/05/14 06:11:00;;;;;;;;;;;24.70;47.30;;;;;;1608639;72;1105;-67
2022/05/14 06:13:02;;;;;;;;;;;24.70;47.50;;;;;;1612529;73;767;-67
2022/05/14 06:15:05;;;;;;;;;;;24.70;47.60;;;;;;1606101;73;669;-70
2022/05/14 06:17:07;;;;;;;;;;;24.80;47.60;;;;;;1604692;73;1918;-76
2022/05/14 06:19:09;;;;;;;;;;;24.80;47.20;;;;;;1606467;73;663;-73
2022/05/14 06:21:11;;;;;;;;;;;24.70;46.90;;;;;;1613991;72;1724;-74
2022/05/14 06:23:14;;;;;;;;;;;24.70;46.60;;;;;;1609879;73;654;-74
2022/05/14 06:25:16;;;;;;;;;;;24.60;46.30;;;;;;1603905;73;726;-72
2022/05/14 06:27:18;;;;;;;;;;;24.60;46.00;;;;;;1607485;73;719;-70
2022/05/14 06:29:21;;;;;;;;;;;24.60;45.70;;;;;;1605148;73;655;-72
2022/05/14 06:31:23;;;;;;;;;;;24.60;45.40;;;;;;1608340;72;1122;-72
2022/05/14 06:33:30;;;;;;;;;;;24.50;45.20;;;;;;1612377;73;581;-73
2022/05/14 06:35:28;;;;;;;;;;;24.60;45.10;;;;;;1601269;73;1498;-72
2022/05/14 06:37:30;;;;;;;;;;;24.60;45.00;;;;;;1608850;73;1914;-73
2022/05/14 06:39:32;;;;;;;;;;;24.60;45.10;;;;;;1604430;73;689;-70
2022/05/14 06:41:34;;;;;;;;;;;24.60;45.00;;;;;;1614403;73;1191;-70
2022/05/14 06:43:36;;;;;;;;;;;24.60;44.90;;;;;;1610529;73;687;-69
2022/05/14 06:45:38;;;;;;;;;;;24.60;44.60;;;;;;1616083;73;674;-72
2022/05/14 06:47:40;;;;;;;;;;;24.70;44.50;;;;;;1586221;73;677;-72
2022/05/14 06:49:41;;;;;;;;;;;24.70;44.40;;;;;;1593289;73;1475;-72
2022/05/14 06:51:43;;;;;;;;;;;24.80;44.00;;;;;;1597520;73;1065;-73
2022/05/14 06:53:45;;;;;;;;;;;24.90;43.90;;;;;;1583129;73;726;-72
2022/05/14 06:55:48;;;;;;;;;;;24.80;43.90;;;;;;1605083;73;767;-67
2022/05/14 06:57:49;;;;;;;;;;;24.90;44.00;;;;;;1589746;73;1923;-67
2022/05/14 06:59:51;;;;;;;;;;;24.90;44.00;;;;;;1600662;72;679;-67
2022/05/14 07:01:53;;;;;;;;;;;24.90;43.80;;;;;;1612123;73;1145;-67
2022/05/14 07:08:35;;;;;;;;;;;24.80;43.30;;;;;;1609615;73;1625;-67
2022/05/14 07:10:37;;;;;;;;;;;24.90;43.30;;;;;;1608599;73;665;-68
2022/05/14 07:12:39;;;;;;;;;;;24.90;43.30;;;;;;1609882;73;1044;-68
2022/05/14 07:14:43;;;;;;;;;;;25.00;43.40;;;;;;1585135;74;727;-69
2022/05/14 07:16:45;;;;;;;;;;;25.00;43.50;;;;;;1570393;75;1615;-68
2022/05/14 07:18:47;;;;;;;;;;;25.00;42.90;;;;;;1629625;72;1939;-68
2022/05/14 07:20:49;;;;;;;;;;;25.00;42.90;;;;;;1610369;71;1101;-66
2022/05/14 07:22:50;;;;;;;;;;;25.00;42.70;;;;;;1636787;71;657;-68
2022/05/14 07:24:53;;;;;;;;;;;25.00;42.60;;;;;;1636387;71;708;-68
2022/05/14 07:26:55;;;;;;;;;;;25.10;42.60;;;;;;1632982;71;705;-66
2022/05/14 07:28:57;;;;;;;;;;;25.10;42.30;;;;;;1628042;71;734;-67
2022/05/14 07:31:00;;;;;;;;;;;25.10;42.40;;;;;;1635918;71;1129;-67
2022/05/14 07:33:02;;;;;;;;;;;25.10;42.30;;;;;;1635525;71;1558;-69
2022/05/14 07:35:05;;;;;;;;;;;25.20;42.20;;;;;;1630776;71;786;-70
2022/05/14 07:37:13;;;;;;;;;;;25.20;42.30;;;;;;1634770;71;725;-68
2022/05/14 07:39:14;;;;;;;;;;;25.20;42.30;;;;;;1640257;71;1170;-69
2022/05/14 07:41:16;;;;;;;;;;;25.30;42.30;;;;;;1632740;71;1191;-69
2022/05/14 07:43:19;;;;;;;;;;;25.30;42.30;;;;;;1637353;71;700;-70
2022/05/14 07:45:27;;;;;;;;;;;25.40;42.10;;;;;;1633715;71;599;-70
2022/05/14 07:47:28;;;;;;;;;;;25.40;41.90;;;;;;1645088;71;830;-71
2022/05/14 07:49:30;;;;;;;;;;;25.50;41.70;;;;;;1623704;72;713;-72
2022/05/14 07:51:32;;;;;;;;;;;25.50;41.80;;;;;;1623640;71;3110;-71
2022/05/14 07:53:34;;;;;;;;;;;25.60;41.80;;;;;;1625138;72;599;-71
2022/05/14 07:55:37;;;;;;;;;;;25.50;41.60;;;;;;1621528;72;980;-70
2022/05/14 07:57:38;;;;;;;;;;;25.60;41.60;;;;;;1625492;72;1920;-70
2022/05/14 07:59:40;;;;;;;;;;;25.60;39.80;;;;;;1622759;72;1319;-70
2022/05/14 08:01:42;;;;;;;;;;;25.60;40.50;;;;;;1620645;72;1220;-70
2022/05/14 08:03:47;;;;;;;;;;;25.60;38.20;;;;;;1615548;72;753;-70
2022/05/14 08:05:48;;;;;;;;;;;25.60;38.90;;;;;;1602462;73;1624;-72
2022/05/14 08:07:50;;;;;;;;;;;25.60;38.20;;;;;;1610516;73;739;-69
2022/05/14 08:09:52;;;;;;;;;;;25.50;39.40;;;;;;1609406;72;717;-70
2022/05/14 08:11:53;;;;;;;;;;;25.50;37.80;;;;;;1612147;73;1151;-71
2022/05/14 08:13:55;;;;;;;;;;;25.40;36.80;;;;;;1603856;73;1562;-69
2022/05/14 08:15:57;;;;;;;;;;;25.30;35.60;;;;;;1596920;73;721;-70
2022/05/14 08:17:59;;;;;;;;;;;25.30;37.30;;;;;;1605848;72;1913;-70
2022/05/14 08:20:02;;;;;;;;;;;25.20;36.00;;;;;;1608231;72;817;-71
2022/05/14 08:24:38;;;;;;;;;;;25.20;37.90;;;;;;1600330;72;1730;-70
2022/05/14 08:26:39;;;;;;;;;;;25.20;34.70;;;;;;1612573;73;2052;-71
2022/05/14 08:28:41;;;;;;;;;;;25.20;35.60;;;;;;1599903;73;1524;-70
2022/05/14 08:30:43;;;;;;;;;;;25.00;33.00;;;;;;1613819;72;616;-70
2022/05/14 08:32:45;;;;;;;;;;;24.90;33.30;;;;;;1600051;72;1132;-71
2022/05/14 08:34:48;;;;;;;;;;;25.00;36.80;;;;;;1607093;73;750;-70
2022/05/14 08:36:50;;;;;;;;;;;24.90;34.00;;;;;;1605000;73;571;-70
2022/05/14 08:38:53;;;;;;;;;;;24.90;36.80;;;;;;1611685;72;1922;-76
2022/05/14 08:40:56;;;;;;;;;;;25.00;37.20;;;;;;1598982;73;716;-67
2022/05/14 08:43:02;;;;;;;;;;;25.00;37.50;;;;;;1600676;72;1629;-68
2022/05/14 08:45:04;;;;;;;;;;;25.10;36.90;;;;;;1599710;72;714;-67
2022/05/14 08:47:07;;;;;;;;;;;25.10;37.00;;;;;;1607849;72;685;-70
2022/05/14 08:49:13;;;;;;;;;;;25.10;35.00;;;;;;1603834;73;711;-69
2022/05/14 08:51:15;;;;;;;;;;;25.10;36.40;;;;;;1588696;73;1813;-66
2022/05/14 08:53:17;;;;;;;;;;;25.10;36.20;;;;;;1610477;72;822;-70
2022/05/14 08:55:19;;;;;;;;;;;25.10;36.30;;;;;;1605932;73;877;-70
2022/05/14 08:57:24;;;;;;;;;;;25.20;36.70;;;;;;1609127;72;1298;-69
2022/05/14 08:59:31;;;;;;;;;;;25.20;36.80;;;;;;1603193;72;1917;-70
2022/05/14 09:01:34;;;;;;;;;;;25.20;36.80;;;;;;1595542;73;1172;-70
2022/05/14 09:03:36;;;;;;;;;;;25.20;36.80;;;;;;1596964;72;702;-71
2022/05/14 09:05:38;;;;;;;;;;;25.20;36.90;;;;;;1600297;73;707;-70
2022/05/14 09:07:40;;;;;;;;;;;25.30;37.10;;;;;;1600519;73;738;-70
2022/05/14 09:09:49;;;;;;;;;;;25.30;35.70;;;;;;1599954;72;662;-70
2022/05/14 09:11:55;;;;;;;;;;;25.20;36.80;;;;;;1599043;73;1449;-70
2022/05/14 09:13:59;;;;;;;;;;;25.20;35.50;;;;;;1610862;72;849;-70
2022/05/14 09:16:02;;;;;;;;;;;25.30;36.50;;;;;;1606022;73;710;-72
2022/05/14 09:18:08;;;;;;;;;;;25.30;36.40;;;;;;1602620;72;1922;-71
2022/05/14 09:20:10;;;;;;;;;;;25.30;36.60;;;;;;1612106;73;623;-70
2022/05/14 09:22:26;;;;;;;;;;;25.20;35.00;;;;;;1604531;73;1137;-71
2022/05/14 09:24:28;;;;;;;;;;;25.30;36.50;;;;;;1599300;72;1531;-70
2022/05/14 09:26:32;;;;;;;;;;;25.30;36.30;;;;;;1600518;72;662;-71
2022/05/14 09:28:39;;;;;;;;;;;25.30;35.60;;;;;;1609530;72;667;-70
2022/05/14 09:30:42;;;;;;;;;;;25.30;36.30;;;;;;1611062;73;799;-69
2022/05/14 09:32:44;;;;;;;;;;;25.30;36.30;;;;;;1593411;72;1148;-70
2022/05/14 09:34:47;;;;;;;;;;;25.30;36.50;;;;;;1613073;73;653;-70
2022/05/14 09:36:49;;;;;;;;;;;25.20;36.70;;;;;;1597893;73;699;-71
2022/05/14 09:38:52;;;;;;;;;;;25.30;36.60;;;;;;1603950;73;1918;-72
2022/05/14 09:40:55;;;;;;;;;;;25.30;37.30;;;;;;1595419;72;1874;-70
2022/05/14 09:43:08;;;;;;;;;;;25.30;36.90;;;;;;1597684;72;1149;-70
2022/05/14 09:45:23;;;;;;;;;;;25.20;37.30;;;;;;1612904;73;689;-70
2022/05/14 09:47:27;;;;;;;;;;;25.20;37.20;;;;;;1599235;73;807;-70
2022/05/14 09:49:29;;;;;;;;;;;25.20;37.30;;;;;;1603655;72;2031;-68
2022/05/14 09:51:38;;;;;;;;;;;25.20;37.00;;;;;;1606617;73;1096;-70
2022/05/14 09:53:41;;;;;;;;;;;25.20;37.30;;;;;;1591886;72;1567;-69
2022/05/14 09:55:45;;;;;;;;;;;25.30;37.20;;;;;;1603780;72;731;-70
2022/05/14 09:57:54;;;;;;;;;;;25.30;36.90;;;;;;1599504;73;1433;-72
2022/05/14 10:00:00;;;;;;;;;;;25.20;36.70;;;;;;1609293;73;1916;-71
2022/05/14 10:02:04;;;;;;;;;;;25.20;35.40;;;;;;1597506;72;1159;-69
2022/05/14 10:04:24;;;;;;;;;;;25.20;36.90;;;;;;1610187;72;1909;-70
2022/05/14 10:06:30;;;;;;;;;;;25.20;36.50;;;;;;1606199;73;1577;-69
2022/05/14 10:08:37;;;;;;;;;;;25.20;36.80;;;;;;1599237;72;693;-70
2022/05/14 10:10:43;;;;;;;;;;;25.20;36.80;;;;;;1593301;73;672;-70
2022/05/14 10:12:46;;;;;;;;;;;25.20;35.40;;;;;;1597898;72;1152;-69
2022/05/14 10:14:52;;;;;;;;;;;25.20;36.80;;;;;;1586419;74;750;-69
2022/05/14 10:16:59;;;;;;;;;;;25.30;36.30;;;;;;1603142;73;1731;-68
2022/05/14 10:19:08;;;;;;;;;;;25.20;36.30;;;;;;1610119;73;1914;-70
2022/05/14 10:21:21;;;;;;;;;;;25.20;36.20;;;;;;1560167;73;1404;-70
2022/05/14 10:28:16;;;;;;;;;;;25.10;36.00;;;;;;1600428;72;1664;-70
2022/05/14 10:30:21;;;;;;;;;;;25.10;35.90;;;;;;1595273;72;1851;-76
2022/05/14 10:32:24;;;;;;;;;;;25.10;36.40;;;;;;1603180;72;1907;-71
2022/05/14 10:34:37;;;;;;;;;;;25.10;36.80;;;;;;1595080;73;1530;-71
2022/05/14 10:36:40;;;;;;;;;;;25.00;35.70;;;;;;1601086;72;677;-72
2022/05/14 10:38:47;;;;;;;;;;;25.00;36.10;;;;;;1607013;73;1937;-69
2022/05/14 10:40:51;;;;;;;;;;;25.00;36.20;;;;;;1605725;72;1803;-72
2022/05/14 10:42:59;;;;;;;;;;;25.00;36.80;;;;;;1599028;73;1161;-69
2022/05/14 10:45:00;;;;;;;;;;;24.90;37.10;;;;;;1592015;72;1601;-69
2022/05/14 10:47:03;;;;;;;;;;;25.00;37.20;;;;;;1595553;73;1826;-69
2022/05/14 10:49:09;;;;;;;;;;;25.00;37.30;;;;;;1604980;72;1533;-70
2022/05/14 10:51:13;;;;;;;;;;;25.00;37.60;;;;;;1612560;72;1168;-70
2022/05/14 10:53:15;;;;;;;;;;;25.00;37.70;;;;;;1600702;73;794;-70
2022/05/14 10:55:18;;;;;;;;;;;25.00;37.90;;;;;;1579501;74;1025;-70
2022/05/14 10:57:22;;;;;;;;;;;25.00;37.80;;;;;;1600008;72;1537;-71
2022/05/14 10:59:33;;;;;;;;;;;25.00;37.20;;;;;;1614536;73;1928;-71
2022/05/14 11:01:41;;;;;;;;;;;25.00;37.70;;;;;;1600734;72;1653;-71
2022/05/14 11:03:45;;;;;;;;;;;25.00;37.80;;;;;;1571392;73;1655;-71
2022/05/14 11:05:51;;;;;;;;;;;25.00;37.80;;;;;;1604797;72;715;-71
2022/05/14 11:07:53;;;;;;;;;;;25.00;37.70;;;;;;1607921;73;678;-71
2022/05/14 11:09:54;;;;;;;;;;;25.00;37.80;;;;;;1608865;73;791;-72
2022/05/14 11:11:58;;;;;;;;;;;25.00;37.80;;;;;;1604926;72;1166;-71
2022/05/14 11:14:01;;;;;;;;;;;25.10;37.70;;;;;;1601621;72;803;-71
2022/05/14 11:16:13;;;;;;;;;;;25.10;37.20;;;;;;1597733;73;720;-69
2022/05/14 11:18:16;;;;;;;;;;;25.10;37.10;;;;;;1589961;73;1767;-71
2022/05/14 11:20:18;;;;;;;;;;;25.00;37.30;;;;;;1602404;72;1921;-72
2022/05/14 11:22:24;;;;;;;;;;;25.00;37.30;;;;;;1599759;72;1151;-72
2022/05/14 11:24:42;;;;;;;;;;;25.00;37.40;;;;;;1594406;73;741;-72
2022/05/14 11:26:48;;;;;;;;;;;25.00;37.60;;;;;;1596293;73;678;-72
2022/05/14 11:28:58;;;;;;;;;;;25.00;37.80;;;;;;1595439;72;1027;-72
2022/05/14 11:31:11;;;;;;;;;;;25.00;37.80;;;;;;1597967;73;1798;-72
2022/05/14 11:33:23;;;;;;;;;;;25.00;37.70;;;;;;1599657;72;1823;-72
2022/05/14 11:35:26;;;;;;;;;;;25.00;37.50;;;;;;1603025;73;716;-71
2022/05/14 11:37:30;;;;;;;;;;;25.00;37.40;;;;;;1604670;73;1088;-71
2022/05/14 11:39:36;;;;;;;;;;;24.90;37.30;;;;;;1592199;73;1945;-71
2022/05/14 11:41:38;;;;;;;;;;;24.90;37.10;;;;;;1596431;72;1212;-71
2022/05/14 11:43:42;;;;;;;;;;;24.80;36.30;;;;;;1597401;73;649;-69
2022/05/14 11:45:45;;;;;;;;;;;24.70;35.90;;;;;;1596117;73;1541;-71
2022/05/14 11:47:49;;;;;;;;;;;24.70;37.10;;;;;;1596476;72;1832;-72
2022/05/14 11:49:51;;;;;;;;;;;24.70;34.60;;;;;;1607959;72;1141;-71
2022/05/14 11:52:11;;;;;;;;;;;24.50;33.90;;;;;;1609355;72;1114;-72
2022/05/14 11:54:20;;;;;;;;;;;24.50;35.00;;;;;;1602620;73;737;-72
2022/05/14 11:56:30;;;;;;;;;;;24.30;36.20;;;;;;1598326;73;1014;-71
2022/05/14 11:58:40;;;;;;;;;;;24.40;36.30;;;;;;1605340;73;1466;-72
2022/05/14 12:00:42;;;;;;;;;;;24.40;36.70;;;;;;1596537;73;1127;-71
2022/05/14 12:02:49;;;;;;;;;;;24.40;36.60;;;;;;1617320;72;1142;-71
2022/05/14 12:04:52;;;;;;;;;;;24.40;36.50;;;;;;1604987;73;690;-71
2022/05/14 12:07:01;;;;;;;;;;;24.40;36.70;;;;;;1595981;73;725;-71
2022/05/14 12:09:23;;;;;;;;;;;24.50;36.90;;;;;;1604566;73;710;-73
2022/05/14 12:11:27;;;;;;;;;;;24.50;37.00;;;;;;1606122;72;1171;-72
2022/05/14 12:13:39;;;;;;;;;;;24.50;37.10;;;;;;1594919;73;1590;-71
2022/05/14 12:15:47;;;;;;;;;;;24.50;37.10;;;;;;1604211;72;1631;-71
2022/05/14 12:17:49;;;;;;;;;;;24.60;37.20;;;;;;1601525;73;628;-71
2022/05/14 12:19:55;;;;;;;;;;;24.50;37.10;;;;;;1604237;72;1936;-71
2022/05/14 12:21:58;;;;;;;;;;;24.60;37.00;;;;;;1599401;73;1150;-71
2022/05/14 12:24:00;;;;;;;;;;;24.60;37.00;;;;;;1597921;72;709;-70
2022/05/14 12:26:01;;;;;;;;;;;24.60;36.80;;;;;;1601434;73;629;-71
2022/05/14 12:28:05;;;;;;;;;;;24.60;37.00;;;;;;1598515;73;1559;-71
2022/05/14 12:30:08;;;;;;;;;;;24.60;37.20;;;;;;1602590;72;898;-72
2022/05/14 12:34:36;;;;;;;;;;;24.50;36.90;;;;;;1600669;73;616;-70
2022/05/14 12:36:43;;;;;;;;;;;24.60;37.00;;;;;;1607417;73;552;-71